YMTG

Details ICAO YMTG (MGB)
Name Mount Gambier
Region Australia
Timezone Australia/Adelaide (UTC+10.5)
Plans Departing 12
Arriving 13
Stats Elevation 212 ft / 65 m (AMSL)
Location -37.747502° 140.785588°
Runways 3
Magnetic Variation 9.649° E
Sunrise 2017-12-13 19:10:22 UTC / 2017-12-14 05:40:22 Local
Sunset 2017-12-14 09:55:09 UTC / 2017-12-14 20:25:09 Local
Advertisement - Login to hide

Runways

ID Width Length Bearing (true) Bearing (mag) Surface Threshold Offset Overrun Length
06 98 ft / 30 m 3,021 ft / 921 m 64.00° 54.35° Asphalt 0 ft / 0 m 0 ft / 0 m
11 98 ft / 30 m 3,018 ft / 920 m 121.11° 111.46° Asphalt 0 ft / 0 m 0 ft / 0 m
18 98 ft / 30 m 5,008 ft / 1,526 m 185.80° 176.15° Asphalt 0 ft / 0 m 0 ft / 0 m
24 98 ft / 30 m 3,021 ft / 921 m 243.99° 234.34° Asphalt 249 ft / 76 m 0 ft / 0 m
29 98 ft / 30 m 3,018 ft / 920 m 301.10° 291.45° Asphalt 0 ft / 0 m 0 ft / 0 m
36 98 ft / 30 m 5,008 ft / 1,526 m 5.80° 356.15° Asphalt 0 ft / 0 m 0 ft / 0 m

Map

Weather


0- 5 10 15 20 25 30 35+ Temperature / ° C

Clouds and Precipitation
Forecast for 2017-12-14 00:00 UTC. Updated 2 hours ago

Ground ~20,000 ft ~40,000 ft Winds

METAR

YMTG 132000Z AUTO 24006KT 9999 // SCT010 OVC027 16/14 Q1007

TAF

Not found

Frequencies

Unicom 126.65 MHz Mount Gambier CTAF
Clearance 125.80 MHz Melbourne Centre
Warning: Do not use this data for real-world aviation or navigation. No guarantee of current accuracy is given.